createdAt,value
2018-03-03T00:00:13.966Z,15.55
2018-03-03T00:01:13.927Z,15.53
2018-03-03T00:02:13.946Z,15.53
2018-03-03T00:03:13.951Z,15.54
2018-03-03T00:04:13.949Z,15.53
2018-03-03T00:05:13.933Z,15.52
2018-03-03T00:06:13.961Z,15.51
2018-03-03T00:07:13.926Z,15.51
2018-03-03T00:08:13.936Z,15.51
2018-03-03T00:09:13.929Z,15.51
2018-03-03T00:10:13.928Z,15.51
2018-03-03T00:11:13.953Z,15.5
2018-03-03T00:12:13.947Z,15.5
2018-03-03T00:13:13.934Z,15.5
2018-03-03T00:14:13.946Z,15.5
2018-03-03T00:15:13.979Z,15.48
2018-03-03T00:16:13.918Z,15.47
2018-03-03T00:17:13.954Z,15.46
2018-03-03T00:18:13.952Z,15.47
2018-03-03T00:19:13.918Z,15.47
2018-03-03T00:20:13.991Z,15.46
2018-03-03T00:21:13.945Z,15.46
2018-03-03T00:22:13.957Z,15.45
2018-03-03T00:23:13.947Z,15.45
2018-03-03T00:24:13.945Z,15.44
2018-03-03T00:25:13.945Z,15.44
2018-03-03T00:26:13.945Z,15.44
2018-03-03T00:27:13.961Z,15.44
2018-03-03T00:28:13.922Z,15.44
2018-03-03T00:29:13.895Z,15.44
2018-03-03T00:30:13.929Z,15.43
2018-03-03T00:31:13.942Z,15.43
2018-03-03T00:32:13.956Z,15.42
2018-03-03T00:33:13.916Z,15.41
2018-03-03T00:34:13.910Z,15.4
2018-03-03T00:35:13.929Z,15.4
2018-03-03T00:36:13.934Z,15.4
2018-03-03T00:37:13.954Z,15.4
2018-03-03T00:38:13.938Z,15.39
2018-03-03T00:39:13.953Z,15.38
2018-03-03T00:40:13.939Z,15.38
2018-03-03T00:41:13.931Z,15.38
2018-03-03T00:42:13.920Z,15.38
2018-03-03T00:43:13.916Z,15.38
2018-03-03T00:44:13.935Z,15.36
2018-03-03T00:45:14.007Z,15.37
2018-03-03T00:46:14.041Z,15.35
2018-03-03T00:47:13.921Z,15.34
2018-03-03T00:48:13.933Z,15.34
2018-03-03T00:49:13.935Z,15.35
2018-03-03T00:50:13.924Z,15.34
2018-03-03T00:51:13.921Z,15.33
2018-03-03T00:52:13.918Z,15.34
2018-03-03T00:53:13.930Z,15.33
2018-03-03T00:54:13.945Z,15.33
2018-03-03T00:55:13.920Z,15.32
2018-03-03T00:56:13.942Z,15.31
2018-03-03T00:57:13.953Z,15.31
2018-03-03T00:58:13.934Z,15.31
2018-03-03T00:59:13.939Z,15.3
2018-03-03T01:00:13.949Z,15.29
2018-03-03T01:01:13.938Z,15.3
2018-03-03T01:02:13.925Z,15.28
2018-03-03T01:03:13.921Z,15.29
2018-03-03T01:04:13.928Z,15.28
2018-03-03T01:05:13.940Z,15.27
2018-03-03T01:06:13.907Z,15.28
2018-03-03T01:07:13.924Z,15.27
2018-03-03T01:08:13.937Z,15.26
2018-03-03T01:09:13.912Z,15.26
2018-03-03T01:10:13.916Z,15.25
2018-03-03T01:11:13.937Z,15.25
2018-03-03T01:12:13.930Z,15.25
2018-03-03T01:13:13.885Z,15.25
2018-03-03T01:14:13.911Z,15.25
2018-03-03T01:15:13.942Z,15.24
2018-03-03T01:16:13.942Z,15.24
2018-03-03T01:17:13.936Z,15.24
2018-03-03T01:18:13.928Z,15.24
2018-03-03T01:19:13.913Z,15.23
2018-03-03T01:20:13.904Z,15.23
2018-03-03T01:21:13.937Z,15.23
2018-03-03T01:22:13.935Z,15.22
2018-03-03T01:23:13.935Z,15.22
2018-03-03T01:24:13.931Z,15.21
2018-03-03T01:25:13.922Z,15.21
2018-03-03T01:26:13.925Z,15.2
2018-03-03T01:27:14.351Z,15.21
2018-03-03T01:28:13.922Z,15.21
2018-03-03T01:29:13.931Z,15.2
2018-03-03T01:30:13.923Z,15.19
2018-03-03T01:31:13.919Z,15.19
2018-03-03T01:32:13.917Z,15.18
2018-03-03T01:33:13.913Z,15.18
2018-03-03T01:34:13.935Z,15.18
2018-03-03T01:35:13.915Z,15.18
2018-03-03T01:36:13.910Z,15.18
2018-03-03T01:37:13.953Z,15.17
2018-03-03T01:38:13.911Z,15.16
2018-03-03T01:39:14.027Z,15.15
2018-03-03T01:40:13.911Z,15.15
2018-03-03T01:41:13.898Z,15.15
2018-03-03T01:42:13.907Z,15.15
2018-03-03T01:43:13.917Z,15.14
2018-03-03T01:44:13.911Z,15.13
2018-03-03T01:45:13.921Z,15.13
2018-03-03T01:46:13.893Z,15.13
2018-03-03T01:47:13.916Z,15.13
2018-03-03T01:48:13.979Z,15.12
2018-03-03T01:49:13.900Z,15.12
2018-03-03T01:50:13.888Z,15.12
2018-03-03T01:51:13.908Z,15.12
2018-03-03T01:52:13.907Z,15.12
2018-03-03T01:53:13.912Z,15.11
2018-03-03T01:54:13.911Z,15.11
2018-03-03T01:55:13.901Z,15.11
2018-03-03T01:56:13.884Z,15.11
2018-03-03T01:57:13.888Z,15.11
2018-03-03T01:58:13.928Z,15.09
2018-03-03T01:59:13.933Z,15.1
2018-03-03T02:00:13.890Z,15.08
2018-03-03T02:01:13.904Z,15.06
2018-03-03T02:02:13.878Z,15.07
2018-03-03T02:03:13.907Z,15.06
2018-03-03T02:04:13.895Z,15.06
2018-03-03T02:05:13.927Z,15.05
2018-03-03T02:06:13.922Z,15.05
2018-03-03T02:07:13.910Z,15.05
2018-03-03T02:08:13.903Z,15.05
2018-03-03T02:09:13.892Z,15.04
2018-03-03T02:10:13.890Z,15.05
2018-03-03T02:11:13.891Z,15.05
2018-03-03T02:12:13.922Z,15.04
2018-03-03T02:13:13.897Z,15.05
2018-03-03T02:14:13.927Z,15.04
2018-03-03T02:15:13.907Z,15.03
2018-03-03T02:16:13.908Z,15.02
2018-03-03T02:17:13.928Z,15.02
2018-03-03T02:18:13.860Z,15.02
2018-03-03T02:19:13.905Z,15.01
2018-03-03T02:20:13.896Z,15.01
2018-03-03T02:21:13.902Z,15.01
2018-03-03T02:22:13.915Z,15
2018-03-03T02:23:13.884Z,15
2018-03-03T02:24:13.896Z,15
2018-03-03T02:25:13.891Z,15
2018-03-03T02:26:13.894Z,14.99
2018-03-03T02:27:13.965Z,14.99
2018-03-03T02:28:13.898Z,14.99
2018-03-03T02:29:13.889Z,14.98
2018-03-03T02:30:13.893Z,14.98
2018-03-03T02:31:13.931Z,14.98
2018-03-03T02:32:13.901Z,14.97
2018-03-03T02:33:13.939Z,14.95
2018-03-03T02:34:13.904Z,14.96
2018-03-03T02:35:13.925Z,14.95
2018-03-03T02:36:13.900Z,14.94
2018-03-03T02:37:13.922Z,14.93
2018-03-03T02:38:13.926Z,14.94
2018-03-03T02:39:13.914Z,14.94
2018-03-03T02:40:13.923Z,14.94
2018-03-03T02:41:13.912Z,14.94
2018-03-03T02:42:13.950Z,14.94
2018-03-03T02:43:13.896Z,14.93
2018-03-03T02:44:13.901Z,14.92
2018-03-03T02:45:13.886Z,14.92
2018-03-03T02:46:14.011Z,14.93
2018-03-03T02:47:14.306Z,14.92
2018-03-03T02:48:13.907Z,14.93
2018-03-03T02:49:13.924Z,14.92
2018-03-03T02:50:13.920Z,14.92
2018-03-03T02:51:13.879Z,14.92
2018-03-03T02:52:13.909Z,14.91
2018-03-03T02:53:13.975Z,14.9
2018-03-03T02:54:13.929Z,14.91
2018-03-03T02:55:13.928Z,14.91
2018-03-03T02:56:13.893Z,14.9
2018-03-03T02:57:13.894Z,14.9
2018-03-03T02:58:13.948Z,14.88
2018-03-03T02:59:13.917Z,14.87
2018-03-03T03:00:13.972Z,14.87
2018-03-03T03:01:13.894Z,14.87
2018-03-03T03:02:13.906Z,14.87
2018-03-03T03:03:13.928Z,14.87
2018-03-03T03:04:13.979Z,14.87
2018-03-03T03:05:14.006Z,14.86
2018-03-03T03:06:13.902Z,14.86
2018-03-03T03:07:14.017Z,14.86
2018-03-03T03:08:13.881Z,14.86
2018-03-03T03:09:13.741Z,14.86
2018-03-03T03:10:13.911Z,14.86
2018-03-03T03:11:13.913Z,14.86
2018-03-03T03:12:13.901Z,14.85
2018-03-03T03:13:13.876Z,14.85
2018-03-03T03:14:13.917Z,14.85
2018-03-03T03:15:13.922Z,14.84
2018-03-03T03:16:13.893Z,14.84
2018-03-03T03:17:13.863Z,14.84
2018-03-03T03:18:13.846Z,14.83
2018-03-03T03:19:13.878Z,14.82
2018-03-03T03:20:13.891Z,14.82
2018-03-03T03:21:13.897Z,14.82
2018-03-03T03:22:13.871Z,14.82
2018-03-03T03:23:13.873Z,14.82
2018-03-03T03:24:13.885Z,14.82
2018-03-03T03:25:13.862Z,14.82
2018-03-03T03:26:13.925Z,14.82
2018-03-03T03:27:13.882Z,14.82
2018-03-03T03:28:13.880Z,14.81
2018-03-03T03:29:13.891Z,14.81
2018-03-03T03:30:13.873Z,14.81
2018-03-03T03:31:13.963Z,14.8
2018-03-03T03:32:13.879Z,14.8
2018-03-03T03:33:13.852Z,14.79
2018-03-03T03:34:13.900Z,14.79
2018-03-03T03:35:13.995Z,14.79
2018-03-03T03:36:13.953Z,14.79
2018-03-03T03:37:13.884Z,14.79
2018-03-03T03:38:13.881Z,14.79
2018-03-03T03:39:13.933Z,14.77
2018-03-03T03:40:13.884Z,14.76
2018-03-03T03:41:13.899Z,14.76
2018-03-03T03:42:14.163Z,14.76
2018-03-03T03:43:13.863Z,14.76
2018-03-03T03:44:13.873Z,14.76
2018-03-03T03:45:13.869Z,14.77
2018-03-03T03:46:13.881Z,14.75
2018-03-03T03:47:13.899Z,14.76
2018-03-03T03:48:13.899Z,14.75
2018-03-03T03:49:13.854Z,14.75
2018-03-03T03:50:13.865Z,14.74
2018-03-03T03:51:13.857Z,14.75
2018-03-03T03:52:13.877Z,14.74
2018-03-03T03:53:13.889Z,14.74
2018-03-03T03:54:13.871Z,14.74
2018-03-03T03:55:13.874Z,14.73
2018-03-03T03:56:13.873Z,14.72
2018-03-03T03:57:13.868Z,14.72
2018-03-03T03:58:13.949Z,14.72
2018-03-03T03:59:13.895Z,14.72
2018-03-03T04:00:13.870Z,14.72
2018-03-03T04:01:13.838Z,14.72
2018-03-03T04:02:13.879Z,14.72
2018-03-03T04:03:13.841Z,14.72
2018-03-03T04:04:14.193Z,14.71
2018-03-03T04:05:13.852Z,14.72
2018-03-03T04:06:13.854Z,14.72
2018-03-03T04:07:13.880Z,14.71
2018-03-03T04:08:13.831Z,14.69
2018-03-03T04:09:13.864Z,14.7
2018-03-03T04:10:13.861Z,14.69
2018-03-03T04:11:13.869Z,14.69
2018-03-03T04:12:13.743Z,14.68
2018-03-03T04:13:13.858Z,14.69
2018-03-03T04:14:13.860Z,14.7
2018-03-03T04:15:13.869Z,14.69
2018-03-03T04:16:13.907Z,14.69
2018-03-03T04:17:13.890Z,14.68
2018-03-03T04:18:13.876Z,14.68
2018-03-03T04:19:13.866Z,14.68
2018-03-03T04:20:13.833Z,14.67
2018-03-03T04:21:13.876Z,14.68
2018-03-03T04:22:13.877Z,14.68
2018-03-03T04:23:13.880Z,14.67
2018-03-03T04:24:13.855Z,14.68
2018-03-03T04:25:13.847Z,14.67
2018-03-03T04:26:13.851Z,14.67
2018-03-03T04:27:13.891Z,14.67
2018-03-03T04:28:13.867Z,14.66
2018-03-03T04:29:13.894Z,14.67
2018-03-03T04:30:13.855Z,14.66
2018-03-03T04:31:13.846Z,14.67
2018-03-03T04:32:13.837Z,14.66
2018-03-03T04:33:13.823Z,14.66
2018-03-03T04:34:13.856Z,14.66
2018-03-03T04:35:13.848Z,14.66
2018-03-03T04:36:13.849Z,14.65
2018-03-03T04:37:13.832Z,14.64
2018-03-03T04:38:13.855Z,14.65
2018-03-03T04:39:13.892Z,14.64
2018-03-03T04:40:13.842Z,14.64
2018-03-03T04:41:13.857Z,14.64
2018-03-03T04:42:13.867Z,14.64
2018-03-03T04:43:13.854Z,14.63
2018-03-03T04:44:13.874Z,14.64
2018-03-03T04:45:13.864Z,14.63
2018-03-03T04:46:13.875Z,14.62
2018-03-03T04:47:13.950Z,14.62
2018-03-03T04:48:13.974Z,14.62
2018-03-03T04:49:14.844Z,14.61
2018-03-03T04:50:13.833Z,14.61
2018-03-03T04:51:13.814Z,14.62
2018-03-03T04:52:13.825Z,14.62
2018-03-03T04:53:13.825Z,14.63
2018-03-03T04:54:13.863Z,14.64
2018-03-03T04:55:13.813Z,14.64
2018-03-03T04:56:14.249Z,14.65
2018-03-03T04:57:13.814Z,14.65
2018-03-03T04:58:13.852Z,14.65
2018-03-03T04:59:13.847Z,14.64
2018-03-03T05:00:13.833Z,14.64
2018-03-03T05:01:13.896Z,14.63
2018-03-03T05:02:13.860Z,14.64
2018-03-03T05:03:13.834Z,14.64
2018-03-03T05:04:13.853Z,14.64
2018-03-03T05:05:13.863Z,14.64
2018-03-03T05:06:13.878Z,14.64
2018-03-03T05:07:13.857Z,14.64
2018-03-03T05:08:13.836Z,14.64
2018-03-03T05:09:13.826Z,14.64
2018-03-03T05:10:13.833Z,14.64
2018-03-03T05:11:13.821Z,14.64
2018-03-03T05:12:14.118Z,14.66
2018-03-03T05:13:13.859Z,14.66
2018-03-03T05:14:14.675Z,14.66
2018-03-03T05:15:13.830Z,14.67
2018-03-03T05:16:13.840Z,14.68
2018-03-03T05:17:13.859Z,14.69
2018-03-03T05:18:13.828Z,14.7
2018-03-03T05:19:13.836Z,14.71
2018-03-03T05:20:13.848Z,14.71
2018-03-03T05:21:13.839Z,14.72
2018-03-03T05:22:14.094Z,14.73
2018-03-03T05:23:13.853Z,14.74
2018-03-03T05:24:13.905Z,14.75
2018-03-03T05:25:13.868Z,14.76
2018-03-03T05:26:13.842Z,14.78
2018-03-03T05:27:13.872Z,14.79
2018-03-03T05:28:13.845Z,14.79
2018-03-03T05:29:13.830Z,14.81
2018-03-03T05:30:13.845Z,14.82
2018-03-03T05:31:13.833Z,14.83
2018-03-03T05:32:13.927Z,14.85
2018-03-03T05:33:13.837Z,14.86
2018-03-03T05:34:13.853Z,14.87
2018-03-03T05:35:13.841Z,14.89
2018-03-03T05:36:13.849Z,14.91
2018-03-03T05:37:13.867Z,14.92
2018-03-03T05:38:13.824Z,14.95
2018-03-03T05:39:13.819Z,14.97
2018-03-03T05:40:13.847Z,14.99
2018-03-03T05:41:13.824Z,15
2018-03-03T05:42:13.832Z,15.03
2018-03-03T05:43:13.835Z,15.03
2018-03-03T05:44:13.836Z,15.07
2018-03-03T05:45:13.845Z,15.08
2018-03-03T05:46:13.835Z,15.1
2018-03-03T05:47:13.863Z,15.12
2018-03-03T05:48:13.876Z,15.13
2018-03-03T05:49:13.831Z,15.15
2018-03-03T05:50:13.811Z,15.17
2018-03-03T05:51:13.867Z,15.18
2018-03-03T05:52:13.835Z,15.21
2018-03-03T05:53:13.858Z,15.22
2018-03-03T05:54:13.849Z,15.24
2018-03-03T05:55:13.824Z,15.25
2018-03-03T05:56:13.832Z,15.27
2018-03-03T05:57:13.819Z,15.28
2018-03-03T05:58:13.838Z,15.31
2018-03-03T05:59:14.156Z,15.31
2018-03-03T06:00:13.835Z,15.33
2018-03-03T06:01:13.849Z,15.36
2018-03-03T06:02:13.844Z,15.37
2018-03-03T06:03:13.834Z,15.38
2018-03-03T06:04:13.818Z,15.39
2018-03-03T06:05:13.817Z,15.41
2018-03-03T06:06:13.820Z,15.43
2018-03-03T06:07:13.847Z,15.44
2018-03-03T06:08:13.832Z,15.44
2018-03-03T06:09:13.822Z,15.46
2018-03-03T06:10:13.818Z,15.47
2018-03-03T06:11:13.813Z,15.49
2018-03-03T06:12:13.863Z,15.5
2018-03-03T06:13:13.838Z,15.51
2018-03-03T06:14:13.969Z,15.53
2018-03-03T06:15:13.811Z,15.54
2018-03-03T06:16:13.796Z,15.56
2018-03-03T06:17:13.830Z,15.57
2018-03-03T06:18:13.851Z,15.57
2018-03-03T06:19:13.835Z,15.59
2018-03-03T06:20:13.806Z,15.6
2018-03-03T06:21:13.847Z,15.61
2018-03-03T06:22:13.832Z,15.62
2018-03-03T06:23:13.844Z,15.64
2018-03-03T06:24:13.828Z,15.64
2018-03-03T06:25:13.835Z,15.65
2018-03-03T06:26:13.833Z,15.66
2018-03-03T06:27:13.800Z,15.68
2018-03-03T06:28:13.872Z,15.69
2018-03-03T06:29:13.866Z,15.7
2018-03-03T06:30:13.869Z,15.7
2018-03-03T06:31:13.812Z,15.71
2018-03-03T06:32:13.820Z,15.72
2018-03-03T06:33:13.830Z,15.73
2018-03-03T06:34:13.833Z,15.74
2018-03-03T06:35:14.081Z,15.76
2018-03-03T06:36:13.769Z,15.77
2018-03-03T06:37:13.855Z,15.77
2018-03-03T06:38:13.810Z,15.78
2018-03-03T06:39:13.821Z,15.79
2018-03-03T06:40:13.839Z,15.8
2018-03-03T06:41:13.826Z,15.81
2018-03-03T06:42:13.838Z,15.82
2018-03-03T06:43:13.797Z,15.83
2018-03-03T06:44:13.804Z,15.83
2018-03-03T06:45:13.828Z,15.84
2018-03-03T06:46:14.135Z,15.85
2018-03-03T06:47:13.804Z,15.86
2018-03-03T06:48:13.917Z,15.87
2018-03-03T06:49:13.901Z,15.88
2018-03-03T06:50:13.820Z,15.89
2018-03-03T06:51:13.800Z,15.89
2018-03-03T06:52:14.087Z,15.89
2018-03-03T06:53:13.771Z,15.9
2018-03-03T06:54:13.796Z,15.91
2018-03-03T06:55:13.796Z,15.92
2018-03-03T06:56:13.811Z,15.93
2018-03-03T06:57:13.832Z,15.94
2018-03-03T06:58:13.809Z,15.95
2018-03-03T06:59:13.821Z,15.96
2018-03-03T07:00:13.800Z,15.96
2018-03-03T07:01:13.825Z,15.97
2018-03-03T07:02:13.816Z,15.98
2018-03-03T07:03:13.782Z,15.99
2018-03-03T07:04:13.778Z,16
2018-03-03T07:05:13.835Z,16
2018-03-03T07:06:13.786Z,16.01
2018-03-03T07:07:13.800Z,16.02
2018-03-03T07:08:13.802Z,16.02
2018-03-03T07:09:13.781Z,16.03
2018-03-03T07:10:13.836Z,16.04
2018-03-03T07:11:13.798Z,16.05
2018-03-03T07:12:13.810Z,16.06
2018-03-03T07:13:13.812Z,16.07
2018-03-03T07:14:13.802Z,16.08
2018-03-03T07:15:13.813Z,16.09
2018-03-03T07:16:13.807Z,16.09
2018-03-03T07:17:13.808Z,16.09
2018-03-03T07:18:13.842Z,16.1
2018-03-03T07:19:13.808Z,16.11
2018-03-03T07:20:13.809Z,16.12
2018-03-03T07:21:13.803Z,16.13
2018-03-03T07:22:13.790Z,16.13
2018-03-03T07:23:13.816Z,16.14
2018-03-03T07:24:13.803Z,16.15
2018-03-03T07:25:13.795Z,16.15
2018-03-03T07:26:13.818Z,16.15
2018-03-03T07:27:13.803Z,16.16
2018-03-03T07:28:13.791Z,16.17
2018-03-03T07:29:13.794Z,16.18
2018-03-03T07:30:14.154Z,16.18
2018-03-03T07:31:13.813Z,16.19
2018-03-03T07:32:13.840Z,16.2
2018-03-03T07:33:13.793Z,16.21
2018-03-03T07:34:13.806Z,16.21
2018-03-03T07:35:13.823Z,16.22
2018-03-03T07:36:13.802Z,16.22
2018-03-03T07:37:13.778Z,16.22
2018-03-03T07:38:13.789Z,16.23
2018-03-03T07:39:13.834Z,16.24
2018-03-03T07:40:14.057Z,16.25
2018-03-03T07:41:13.794Z,16.25
2018-03-03T07:42:13.774Z,16.25
2018-03-03T07:43:13.789Z,16.25
2018-03-03T07:44:13.795Z,16.26
2018-03-03T07:45:13.828Z,16.26
2018-03-03T07:46:13.803Z,16.26
2018-03-03T07:47:13.776Z,16.26
2018-03-03T07:48:13.789Z,16.26
2018-03-03T07:49:13.792Z,16.26
2018-03-03T07:50:13.834Z,16.26
2018-03-03T07:51:13.781Z,16.26
2018-03-03T07:52:13.769Z,16.26
2018-03-03T07:53:13.816Z,16.26
2018-03-03T07:54:13.761Z,16.26
2018-03-03T07:55:13.824Z,16.25
2018-03-03T07:56:13.772Z,16.25
2018-03-03T07:57:13.785Z,16.25
2018-03-03T07:58:13.810Z,16.25
2018-03-03T07:59:13.789Z,16.25
2018-03-03T08:00:13.798Z,16.25
2018-03-03T08:01:13.799Z,16.25
2018-03-03T08:02:13.794Z,16.25
2018-03-03T08:03:13.789Z,16.25
2018-03-03T08:04:13.788Z,16.25
2018-03-03T08:05:13.741Z,16.25
2018-03-03T08:06:14.020Z,16.26
2018-03-03T08:07:13.742Z,16.25
2018-03-03T08:08:13.751Z,16.26
2018-03-03T08:09:13.779Z,16.26
2018-03-03T08:10:13.808Z,16.26
2018-03-03T08:11:13.817Z,16.26
2018-03-03T08:12:13.759Z,16.27
2018-03-03T08:13:13.769Z,16.27
2018-03-03T08:14:13.750Z,16.27
2018-03-03T08:15:13.786Z,16.27
2018-03-03T08:16:13.768Z,16.28
2018-03-03T08:17:13.808Z,16.28
2018-03-03T08:18:13.782Z,16.28
2018-03-03T08:19:13.800Z,16.29
2018-03-03T08:20:13.770Z,16.29
2018-03-03T08:21:14.059Z,16.29
2018-03-03T08:22:13.774Z,16.3
2018-03-03T08:23:13.742Z,16.3
2018-03-03T08:24:13.743Z,16.31
2018-03-03T08:25:13.800Z,16.32
2018-03-03T08:26:13.781Z,16.33
2018-03-03T08:27:13.788Z,16.34
2018-03-03T08:28:13.753Z,16.34
2018-03-03T08:29:13.792Z,16.34
2018-03-03T08:30:13.773Z,16.35
2018-03-03T08:31:13.749Z,16.35
2018-03-03T08:32:13.795Z,16.36
2018-03-03T08:33:13.787Z,16.37
2018-03-03T08:34:13.758Z,16.38
2018-03-03T08:35:13.742Z,16.39
2018-03-03T08:36:13.776Z,16.39
2018-03-03T08:37:13.765Z,16.4
2018-03-03T08:38:13.834Z,16.4
2018-03-03T08:39:13.770Z,16.41
2018-03-03T08:40:13.761Z,16.41
2018-03-03T08:41:13.727Z,16.41
2018-03-03T08:42:13.791Z,16.42
2018-03-03T08:43:13.781Z,16.43
2018-03-03T08:44:14.035Z,16.44
2018-03-03T08:45:13.781Z,16.44
2018-03-03T08:46:13.771Z,16.44
2018-03-03T08:47:13.791Z,16.45
2018-03-03T08:48:13.750Z,16.46
2018-03-03T08:49:13.896Z,16.47
2018-03-03T08:50:13.884Z,16.46
2018-03-03T08:51:13.785Z,16.47
2018-03-03T08:52:13.728Z,16.53
2018-03-03T08:53:13.754Z,16.53
2018-03-03T08:54:13.779Z,16.55
2018-03-03T08:55:13.779Z,16.57
2018-03-03T08:56:13.762Z,16.59
2018-03-03T08:57:14.107Z,16.6
2018-03-03T08:58:13.758Z,16.6
2018-03-03T08:59:13.777Z,16.63
2018-03-03T09:00:14.002Z,16.64
2018-03-03T09:01:13.770Z,16.65
2018-03-03T09:02:13.746Z,16.65
2018-03-03T09:03:13.760Z,16.66
2018-03-03T09:04:13.766Z,16.66
2018-03-03T09:05:13.788Z,16.67
2018-03-03T09:06:13.727Z,16.68
2018-03-03T09:07:13.762Z,16.69
2018-03-03T09:08:13.778Z,16.71
2018-03-03T09:09:13.795Z,16.72
2018-03-03T09:10:13.759Z,16.73
2018-03-03T09:11:13.762Z,16.74
2018-03-03T09:12:13.735Z,16.75
2018-03-03T09:13:13.747Z,16.77
2018-03-03T09:14:13.894Z,16.77
2018-03-03T09:15:13.760Z,16.78
2018-03-03T09:16:13.803Z,16.79
2018-03-03T09:17:13.763Z,16.79
2018-03-03T09:18:13.759Z,16.8
2018-03-03T09:19:13.726Z,16.83
2018-03-03T09:20:13.726Z,16.83
2018-03-03T09:21:13.796Z,16.85
2018-03-03T09:22:13.720Z,16.85
2018-03-03T09:23:13.706Z,16.87
2018-03-03T09:24:13.739Z,16.87
2018-03-03T09:25:13.771Z,16.89
2018-03-03T09:26:13.720Z,16.9
2018-03-03T09:27:13.722Z,16.9
2018-03-03T09:28:13.728Z,16.9
2018-03-03T09:29:13.762Z,16.88
2018-03-03T09:30:13.741Z,16.89
2018-03-03T09:31:13.722Z,16.88
2018-03-03T09:32:13.751Z,16.88
2018-03-03T09:33:13.747Z,16.88
2018-03-03T09:34:13.712Z,16.88
2018-03-03T09:35:13.719Z,16.88
2018-03-03T09:36:13.766Z,16.88
2018-03-03T09:37:13.734Z,16.87
2018-03-03T09:38:13.760Z,16.88
2018-03-03T09:39:13.710Z,16.87
2018-03-03T09:40:13.713Z,16.87
2018-03-03T09:41:13.737Z,16.87
2018-03-03T09:42:13.795Z,16.88
2018-03-03T09:43:13.747Z,16.88
2018-03-03T09:44:13.739Z,16.88
2018-03-03T09:45:13.716Z,16.87
2018-03-03T09:46:13.746Z,16.87
2018-03-03T09:47:13.768Z,16.88
2018-03-03T09:48:13.708Z,16.89
2018-03-03T09:49:13.695Z,16.89
2018-03-03T09:50:13.729Z,16.9
2018-03-03T09:51:13.711Z,16.9
2018-03-03T09:52:13.753Z,16.9
2018-03-03T09:53:13.748Z,16.91
2018-03-03T09:54:13.738Z,16.9
2018-03-03T09:55:13.752Z,16.9
2018-03-03T09:56:13.719Z,16.91
2018-03-03T09:57:14.016Z,16.9
2018-03-03T09:58:13.709Z,16.91
2018-03-03T09:59:13.732Z,16.9
2018-03-03T10:00:13.722Z,16.9
2018-03-03T10:01:13.734Z,16.9
2018-03-03T10:02:13.741Z,16.91
2018-03-03T10:03:13.718Z,16.91
2018-03-03T10:04:13.723Z,16.91
2018-03-03T10:05:13.788Z,16.91
2018-03-03T10:06:13.742Z,16.91
2018-03-03T10:07:13.737Z,16.91
2018-03-03T10:08:13.701Z,16.91
2018-03-03T10:09:13.719Z,16.92
2018-03-03T10:10:13.714Z,16.92
2018-03-03T10:11:13.731Z,16.91
2018-03-03T10:12:13.712Z,16.92
2018-03-03T10:13:13.707Z,16.92
2018-03-03T10:14:13.701Z,16.92
2018-03-03T10:15:13.700Z,16.92
2018-03-03T10:16:13.855Z,16.92
2018-03-03T10:17:13.718Z,16.92
2018-03-03T10:18:13.715Z,16.92
2018-03-03T10:19:13.699Z,16.92
2018-03-03T10:20:13.715Z,16.92
2018-03-03T10:21:13.981Z,16.92
2018-03-03T10:22:13.695Z,16.92
2018-03-03T10:23:13.749Z,16.92
2018-03-03T10:24:13.699Z,16.92
2018-03-03T10:25:13.744Z,16.92
2018-03-03T10:26:13.743Z,16.93
2018-03-03T10:27:13.812Z,16.93
2018-03-03T10:28:13.710Z,16.93
2018-03-03T10:29:13.703Z,16.93
2018-03-03T10:30:13.708Z,16.94
2018-03-03T10:31:13.713Z,16.95
2018-03-03T10:32:13.976Z,16.95
2018-03-03T10:33:13.692Z,16.94
2018-03-03T10:34:13.727Z,16.96
2018-03-03T10:35:13.696Z,16.96
2018-03-03T10:36:13.698Z,16.97
2018-03-03T10:37:13.729Z,16.96
2018-03-03T10:38:13.962Z,16.97
2018-03-03T10:39:13.699Z,16.97
2018-03-03T10:40:13.721Z,16.97
2018-03-03T10:41:13.740Z,16.98
2018-03-03T10:42:13.686Z,16.98
2018-03-03T10:43:13.744Z,16.98
2018-03-03T10:44:13.709Z,16.98
2018-03-03T10:45:13.686Z,16.98
2018-03-03T10:46:13.697Z,16.98
2018-03-03T10:47:13.687Z,16.98
2018-03-03T10:48:13.695Z,16.99
2018-03-03T10:49:13.708Z,16.99
2018-03-03T10:50:13.789Z,17
2018-03-03T10:51:13.782Z,17
2018-03-03T10:52:13.735Z,17
2018-03-03T10:53:13.686Z,17
2018-03-03T10:54:13.697Z,17.01
2018-03-03T10:55:13.735Z,17.01
2018-03-03T10:56:13.692Z,17.01
2018-03-03T10:57:13.709Z,17.02
2018-03-03T10:58:13.714Z,17.02
2018-03-03T10:59:13.691Z,17.02
2018-03-03T11:00:13.701Z,17.03
2018-03-03T11:01:14.074Z,17.03
2018-03-03T11:02:13.735Z,17.03
2018-03-03T11:03:13.696Z,17.04
2018-03-03T11:04:13.700Z,17.04
2018-03-03T11:05:13.705Z,17.04
2018-03-03T11:06:13.708Z,17.04
2018-03-03T11:07:13.734Z,17.05
2018-03-03T11:08:13.683Z,17.05
2018-03-03T11:09:13.699Z,17.05
2018-03-03T11:10:13.718Z,17.05
2018-03-03T11:11:13.690Z,17.05
2018-03-03T11:12:13.706Z,17.05
2018-03-03T11:13:14.002Z,17.06
2018-03-03T11:14:13.690Z,17.06
2018-03-03T11:15:13.750Z,17.06
2018-03-03T11:16:13.727Z,17.07
2018-03-03T11:17:13.682Z,17.07
2018-03-03T11:18:13.747Z,17.07
2018-03-03T11:19:13.711Z,17.08
2018-03-03T11:20:13.696Z,17.08
2018-03-03T11:21:13.705Z,17.09
2018-03-03T11:22:13.698Z,17.09
2018-03-03T11:23:13.741Z,17.09
2018-03-03T11:24:13.710Z,17.09
2018-03-03T11:25:13.682Z,17.09
2018-03-03T11:26:13.742Z,17.1
2018-03-03T11:27:13.693Z,17.1
2018-03-03T11:28:13.738Z,17.1
2018-03-03T11:29:13.701Z,17.1
2018-03-03T11:30:13.709Z,17.12
2018-03-03T11:31:13.729Z,17.12
2018-03-03T11:32:13.694Z,17.13
2018-03-03T11:33:13.748Z,17.13
2018-03-03T11:34:13.678Z,17.14
2018-03-03T11:35:13.722Z,17.15
2018-03-03T11:36:13.701Z,17.17
2018-03-03T11:37:13.722Z,17.17
2018-03-03T11:38:13.703Z,17.17
2018-03-03T11:39:13.688Z,17.17
2018-03-03T11:40:13.685Z,17.17
2018-03-03T11:41:13.715Z,17.18
2018-03-03T11:42:13.696Z,17.19
2018-03-03T11:43:13.717Z,17.19
2018-03-03T11:44:13.675Z,17.22
2018-03-03T11:45:13.685Z,17.22
2018-03-03T11:46:13.947Z,17.23
2018-03-03T11:47:13.670Z,17.23
2018-03-03T11:48:13.686Z,17.23
2018-03-03T11:49:13.676Z,17.24
2018-03-03T11:50:13.676Z,17.25
2018-03-03T11:51:13.680Z,17.25
2018-03-03T11:52:13.670Z,17.26
2018-03-03T11:53:13.731Z,17.26
2018-03-03T11:54:13.726Z,17.25
2018-03-03T11:55:13.747Z,17.26
2018-03-03T11:56:13.681Z,17.26
2018-03-03T11:57:13.668Z,17.26
2018-03-03T11:58:13.963Z,17.26
2018-03-03T11:59:13.962Z,17.26
2018-03-03T12:00:13.687Z,17.27
2018-03-03T12:01:13.686Z,17.27
2018-03-03T12:02:13.666Z,17.28
2018-03-03T12:03:13.698Z,17.29
2018-03-03T12:04:13.711Z,17.29
2018-03-03T12:05:13.663Z,17.29
2018-03-03T12:06:13.725Z,17.28
2018-03-03T12:07:13.690Z,17.28
2018-03-03T12:08:13.663Z,17.27
2018-03-03T12:09:13.694Z,17.27
2018-03-03T12:10:13.675Z,17.27
2018-03-03T12:11:13.725Z,17.27
2018-03-03T12:12:13.678Z,17.27
2018-03-03T12:13:13.669Z,17.26
2018-03-03T12:14:13.690Z,17.25
2018-03-03T12:15:13.652Z,17.25
2018-03-03T12:16:13.650Z,17.25
2018-03-03T12:17:13.684Z,17.25
2018-03-03T12:18:13.667Z,17.25
2018-03-03T12:19:13.717Z,17.25
2018-03-03T12:20:13.659Z,17.25
2018-03-03T12:21:13.656Z,17.25
2018-03-03T12:22:13.870Z,17.25
2018-03-03T12:23:13.684Z,17.25
2018-03-03T12:24:13.687Z,17.25
2018-03-03T12:25:13.927Z,17.25
2018-03-03T12:26:13.674Z,17.25
2018-03-03T12:27:13.670Z,17.25
2018-03-03T12:28:13.672Z,17.26
2018-03-03T12:29:13.678Z,17.26
2018-03-03T12:30:13.705Z,17.26
2018-03-03T12:31:13.669Z,17.26
2018-03-03T12:32:13.645Z,17.26
2018-03-03T12:33:13.661Z,17.26
2018-03-03T12:34:13.658Z,17.25
2018-03-03T12:35:13.681Z,17.23
2018-03-03T12:36:13.658Z,17.21
2018-03-03T12:37:13.672Z,17.21
2018-03-03T12:38:13.662Z,17.21
2018-03-03T12:39:13.666Z,17.21
2018-03-03T12:40:13.683Z,17.21
2018-03-03T12:41:13.655Z,17.22
2018-03-03T12:42:13.720Z,17.21
2018-03-03T12:43:13.668Z,17.22
2018-03-03T12:44:13.664Z,17.22
2018-03-03T12:45:13.643Z,17.22
2018-03-03T12:46:13.674Z,17.22
2018-03-03T12:47:17.094Z,17.22
2018-03-03T12:48:13.627Z,17.22
2018-03-03T12:49:13.643Z,17.22
2018-03-03T12:50:13.632Z,17.22
2018-03-03T12:51:13.729Z,17.22
2018-03-03T12:52:13.781Z,17.22
2018-03-03T12:53:13.650Z,17.23
2018-03-03T12:54:13.640Z,17.22
2018-03-03T12:55:13.666Z,17.22